AVA8597 SKBO-SKPS
Flight info
| Callsign | AVA8597 |
|---|---|
| Flight time | 1h 11m |
| Altitude | 38000 |
| Route | VAPOM4R VAPOM DCT OREGA DCT PPN DCT MER |
| Aircraft | A20N/M-SDE2E3FGHIRWXY/LB1 |
Departure
| Time | 2026-05-05 01:30 |
|---|---|
| Airport | El Dorado International Airport (SKBO) |
Arrival
| Time | 2026-05-05 02:41 |
|---|---|
| Airport | Antonio Nariño Airport (SKPS) |
| Time | Latitude | Longitude | Altitude | Speed | Heading |
|---|---|---|---|---|---|
| 2026-05-05 00:56 | 4.69786 | -74.14533 | 8373 ft | 0 kts | 36° |
| 2026-05-05 01:18 | 4.69775 | -74.14542 | 8373 ft | 3 kts | 40° |
| 2026-05-05 01:18 | 4.69760 | -74.14553 | 8373 ft | 3 kts | 27° |
| 2026-05-05 01:19 | 4.69743 | -74.14558 | 8373 ft | 3 kts | 340° |
| 2026-05-05 01:19 | 4.69726 | -74.14548 | 8373 ft | 3 kts | 311° |
| 2026-05-05 01:19 | 4.69713 | -74.14532 | 8373 ft | 3 kts | 307° |
| 2026-05-05 01:19 | 4.69719 | -74.14539 | 8373 ft | 3 kts | 307° |
| 2026-05-05 01:20 | 4.69731 | -74.14555 | 8373 ft | 3 kts | 307° |
| 2026-05-05 01:20 | 4.69744 | -74.14572 | 8373 ft | 3 kts | 307° |
| 2026-05-05 01:20 | 4.69756 | -74.14588 | 8373 ft | 3 kts | 307° |
| 2026-05-05 01:20 | 4.69769 | -74.14605 | 8373 ft | 3 kts | 307° |
| 2026-05-05 01:21 | 4.69781 | -74.14621 | 8373 ft | 3 kts | 307° |
| 2026-05-05 01:21 | 4.69791 | -74.14634 | 8373 ft | 0 kts | 307° |
| 2026-05-05 01:24 | 4.69795 | -74.14639 | 8373 ft | 4 kts | 307° |
| 2026-05-05 01:24 | 4.69836 | -74.14694 | 8373 ft | 13 kts | 307° |
| 2026-05-05 01:25 | 4.69902 | -74.14782 | 8373 ft | 18 kts | 307° |
| 2026-05-05 01:25 | 4.69968 | -74.14851 | 8373 ft | 8 kts | 345° |
| 2026-05-05 01:25 | 4.70026 | -74.14818 | 8373 ft | 13 kts | 39° |
| 2026-05-05 01:25 | 4.70115 | -74.14750 | 8373 ft | 19 kts | 37° |
| 2026-05-05 01:26 | 4.70236 | -74.14658 | 8373 ft | 23 kts | 37° |
| 2026-05-05 01:26 | 4.70369 | -74.14558 | 8373 ft | 24 kts | 36° |
| 2026-05-05 01:26 | 4.70480 | -74.14475 | 8373 ft | 14 kts | 36° |
| 2026-05-05 01:26 | 4.70545 | -74.14483 | 8373 ft | 11 kts | 309° |
| 2026-05-05 01:27 | 4.70595 | -74.14552 | 8373 ft | 13 kts | 307° |
| 2026-05-05 01:27 | 4.70656 | -74.14631 | 8373 ft | 15 kts | 307° |
| 2026-05-05 01:27 | 4.70724 | -74.14724 | 8373 ft | 17 kts | 306° |
| 2026-05-05 01:27 | 4.70809 | -74.14838 | 8373 ft | 25 kts | 307° |
| 2026-05-05 01:28 | 4.70931 | -74.14996 | 8373 ft | 31 kts | 307° |
| 2026-05-05 01:28 | 4.71068 | -74.15178 | 8373 ft | 26 kts | 306° |
| 2026-05-05 01:28 | 4.71152 | -74.15225 | 8373 ft | 14 kts | 356° |
| 2026-05-05 01:28 | 4.71257 | -74.15232 | 8372 ft | 17 kts | 356° |
| 2026-05-05 01:29 | 4.71315 | -74.15180 | 8371 ft | 8 kts | 108° |
| 2026-05-05 01:29 | 4.71272 | -74.15118 | 8371 ft | 21 kts | 127° |
| 2026-05-05 01:29 | 4.71040 | -74.14813 | 8369 ft | 86 kts | 127° |
| 2026-05-05 01:29 | 4.70566 | -74.14188 | 8372 ft | 137 kts | 127° |
| 2026-05-05 01:30 | 4.69906 | -74.13314 | 8427 ft | 171 kts | 126° |
| 2026-05-05 01:30 | 4.69210 | -74.12383 | 9074 ft | 164 kts | 126° |
| 2026-05-05 01:30 | 4.68523 | -74.11447 | 9575 ft | 173 kts | 124° |
| 2026-05-05 01:30 | 4.67822 | -74.10453 | 10043 ft | 180 kts | 125° |
| 2026-05-05 01:31 | 4.67060 | -74.09397 | 10393 ft | 196 kts | 126° |
| 2026-05-05 01:31 | 4.65912 | -74.08603 | 10685 ft | 215 kts | 167° |
| 2026-05-05 01:31 | 4.64374 | -74.08806 | 11047 ft | 239 kts | 201° |
| 2026-05-05 01:31 | 4.63021 | -74.09872 | 11479 ft | 256 kts | 234° |
| 2026-05-05 01:32 | 4.62332 | -74.11514 | 12255 ft | 259 kts | 259° |
| 2026-05-05 01:32 | 4.62139 | -74.13326 | 13018 ft | 263 kts | 267° |
| 2026-05-05 01:32 | 4.62067 | -74.15162 | 13781 ft | 268 kts | 267° |
| 2026-05-05 01:32 | 4.61961 | -74.17037 | 14478 ft | 272 kts | 265° |
| 2026-05-05 01:33 | 4.61793 | -74.18940 | 15144 ft | 276 kts | 264° |
| 2026-05-05 01:33 | 4.61573 | -74.20861 | 15795 ft | 280 kts | 260° |
| 2026-05-05 01:33 | 4.61203 | -74.22817 | 16222 ft | 295 kts | 258° |
| 2026-05-05 01:33 | 4.60787 | -74.24913 | 16414 ft | 319 kts | 258° |
| 2026-05-05 01:34 | 4.60229 | -74.27147 | 16600 ft | 341 kts | 250° |
| 2026-05-05 01:34 | 4.59269 | -74.29391 | 16786 ft | 360 kts | 241° |
| 2026-05-05 01:34 | 4.58077 | -74.31665 | 16951 ft | 378 kts | 241° |
| 2026-05-05 01:34 | 4.56836 | -74.34065 | 17178 ft | 395 kts | 242° |
| 2026-05-05 01:35 | 4.55573 | -74.36531 | 17678 ft | 400 kts | 242° |
| 2026-05-05 01:35 | 4.54303 | -74.39019 | 18257 ft | 404 kts | 242° |
| 2026-05-05 01:35 | 4.53017 | -74.41537 | 18791 ft | 408 kts | 242° |
| 2026-05-05 01:35 | 4.51716 | -74.44080 | 19321 ft | 411 kts | 242° |
| 2026-05-05 01:36 | 4.50407 | -74.46642 | 19852 ft | 414 kts | 242° |
| 2026-05-05 01:36 | 4.49086 | -74.49223 | 20127 ft | 418 kts | 242° |
| 2026-05-05 01:36 | 4.47760 | -74.51813 | 20158 ft | 418 kts | 242° |
| 2026-05-05 01:36 | 4.46450 | -74.54371 | 20168 ft | 418 kts | 242° |
| 2026-05-05 01:37 | 4.45126 | -74.56957 | 20167 ft | 418 kts | 242° |
| 2026-05-05 01:37 | 4.43794 | -74.59557 | 20316 ft | 422 kts | 242° |
| 2026-05-05 01:37 | 4.42453 | -74.62177 | 20913 ft | 422 kts | 242° |
| 2026-05-05 01:37 | 4.41109 | -74.64802 | 21424 ft | 425 kts | 242° |
| 2026-05-05 01:38 | 4.39750 | -74.67454 | 21935 ft | 429 kts | 242° |
| 2026-05-05 01:38 | 4.38383 | -74.70118 | 22443 ft | 433 kts | 242° |
| 2026-05-05 01:38 | 4.36999 | -74.72805 | 22960 ft | 437 kts | 242° |
| 2026-05-05 01:38 | 4.35598 | -74.75519 | 23453 ft | 440 kts | 242° |
| 2026-05-05 01:39 | 4.34186 | -74.78257 | 23918 ft | 443 kts | 242° |
| 2026-05-05 01:39 | 4.32767 | -74.81010 | 24379 ft | 445 kts | 242° |
| 2026-05-05 01:39 | 4.31346 | -74.83765 | 24840 ft | 446 kts | 242° |
| 2026-05-05 01:39 | 4.29919 | -74.86534 | 25283 ft | 448 kts | 242° |
| 2026-05-05 01:40 | 4.28483 | -74.89321 | 25699 ft | 451 kts | 242° |
| 2026-05-05 01:40 | 4.27043 | -74.92117 | 26123 ft | 453 kts | 242° |
| 2026-05-05 01:40 | 4.25607 | -74.94904 | 26514 ft | 455 kts | 242° |
| 2026-05-05 01:40 | 4.24137 | -74.97758 | 26931 ft | 456 kts | 242° |
| 2026-05-05 01:41 | 4.22678 | -75.00588 | 27284 ft | 459 kts | 242° |
| 2026-05-05 01:41 | 4.21197 | -75.03428 | 27701 ft | 460 kts | 240° |
| 2026-05-05 01:41 | 4.19464 | -75.06136 | 28090 ft | 461 kts | 233° |
| 2026-05-05 01:41 | 4.17555 | -75.08673 | 28428 ft | 464 kts | 232° |
| 2026-05-05 01:42 | 4.15609 | -75.11264 | 28796 ft | 466 kts | 232° |
| 2026-05-05 01:42 | 4.13662 | -75.13864 | 29155 ft | 468 kts | 232° |
| 2026-05-05 01:42 | 4.11704 | -75.16482 | 29465 ft | 470 kts | 232° |
| 2026-05-05 01:42 | 4.09741 | -75.19107 | 29798 ft | 472 kts | 232° |
| 2026-05-05 01:43 | 4.07767 | -75.21745 | 30137 ft | 474 kts | 232° |
| 2026-05-05 01:43 | 4.05786 | -75.24391 | 30418 ft | 476 kts | 232° |
| 2026-05-05 01:43 | 4.03793 | -75.27053 | 30669 ft | 479 kts | 232° |
| 2026-05-05 01:43 | 4.01790 | -75.29728 | 30960 ft | 481 kts | 232° |
| 2026-05-05 01:44 | 3.99782 | -75.32410 | 31292 ft | 482 kts | 232° |
| 2026-05-05 01:44 | 3.97766 | -75.35101 | 31652 ft | 482 kts | 232° |
| 2026-05-05 01:44 | 3.95758 | -75.37783 | 32096 ft | 481 kts | 232° |
| 2026-05-05 01:44 | 3.93753 | -75.40460 | 32498 ft | 480 kts | 232° |
| 2026-05-05 01:45 | 3.91754 | -75.43128 | 32885 ft | 479 kts | 232° |
| 2026-05-05 01:45 | 3.89772 | -75.45773 | 33228 ft | 479 kts | 232° |
| 2026-05-05 01:45 | 3.87701 | -75.48375 | 33564 ft | 478 kts | 227° |
| 2026-05-05 01:45 | 3.85377 | -75.50741 | 33977 ft | 476 kts | 221° |
| 2026-05-05 01:46 | 3.82826 | -75.52854 | 34285 ft | 475 kts | 217° |
| 2026-05-05 01:46 | 3.80226 | -75.54888 | 34596 ft | 474 kts | 217° |
| 2026-05-05 01:46 | 3.77639 | -75.56925 | 34918 ft | 473 kts | 217° |
| 2026-05-05 01:46 | 3.75058 | -75.58961 | 35229 ft | 472 kts | 217° |
| 2026-05-05 01:47 | 3.72482 | -75.60994 | 35532 ft | 471 kts | 217° |
| 2026-05-05 01:47 | 3.69913 | -75.63020 | 35847 ft | 470 kts | 217° |
| 2026-05-05 01:47 | 3.67377 | -75.65020 | 36125 ft | 471 kts | 217° |
| 2026-05-05 01:47 | 3.64765 | -75.67079 | 36353 ft | 472 kts | 217° |
| 2026-05-05 01:48 | 3.62186 | -75.69111 | 36673 ft | 471 kts | 217° |
| 2026-05-05 01:48 | 3.59645 | -75.71114 | 36979 ft | 470 kts | 217° |
| 2026-05-05 01:48 | 3.57048 | -75.73160 | 37287 ft | 469 kts | 217° |
| 2026-05-05 01:48 | 3.54482 | -75.75181 | 37559 ft | 469 kts | 217° |
| 2026-05-05 01:49 | 3.51956 | -75.77172 | 37848 ft | 468 kts | 217° |
| 2026-05-05 01:49 | 3.49401 | -75.79185 | 38137 ft | 468 kts | 217° |
| 2026-05-05 01:49 | 3.44248 | -75.83243 | 38192 ft | 468 kts | 217° |
| 2026-05-05 01:50 | 3.39181 | -75.87235 | 38193 ft | 467 kts | 217° |
| 2026-05-05 01:50 | 3.34073 | -75.91257 | 38189 ft | 468 kts | 217° |
| 2026-05-05 01:51 | 3.28968 | -75.95276 | 38192 ft | 467 kts | 217° |
| 2026-05-05 01:51 | 3.23855 | -75.99301 | 38200 ft | 467 kts | 217° |
| 2026-05-05 01:52 | 3.18750 | -76.03320 | 38196 ft | 466 kts | 217° |
| 2026-05-05 01:52 | 3.13653 | -76.07333 | 38167 ft | 466 kts | 217° |
| 2026-05-05 01:53 | 3.08555 | -76.11345 | 38189 ft | 466 kts | 217° |
| 2026-05-05 01:53 | 3.03467 | -76.15347 | 38195 ft | 465 kts | 217° |
| 2026-05-05 01:54 | 2.98387 | -76.19343 | 38195 ft | 464 kts | 217° |
| 2026-05-05 01:54 | 2.93301 | -76.23347 | 38179 ft | 467 kts | 217° |
| 2026-05-05 01:55 | 2.88177 | -76.27377 | 38182 ft | 468 kts | 217° |
| 2026-05-05 01:55 | 2.83042 | -76.31415 | 38179 ft | 469 kts | 217° |
| 2026-05-05 01:56 | 2.77950 | -76.35420 | 38209 ft | 469 kts | 217° |
| 2026-05-05 01:56 | 2.72822 | -76.39452 | 38174 ft | 469 kts | 217° |
| 2026-05-05 01:57 | 2.67689 | -76.43488 | 38140 ft | 470 kts | 217° |
| 2026-05-05 01:57 | 2.65111 | -76.45514 | 37846 ft | 472 kts | 217° |
| 2026-05-05 01:57 | 2.62528 | -76.47544 | 37321 ft | 473 kts | 217° |
| 2026-05-05 01:58 | 2.59930 | -76.49587 | 36484 ft | 477 kts | 217° |
| 2026-05-05 01:58 | 2.57309 | -76.51648 | 35535 ft | 483 kts | 217° |
| 2026-05-05 01:58 | 2.54651 | -76.53737 | 34575 ft | 489 kts | 216° |
| 2026-05-05 01:58 | 2.51969 | -76.55846 | 33638 ft | 492 kts | 216° |
| 2026-05-05 01:59 | 2.49279 | -76.57961 | 32818 ft | 491 kts | 216° |
| 2026-05-05 01:59 | 2.46587 | -76.60076 | 31930 ft | 493 kts | 217° |
| 2026-05-05 01:59 | 2.43889 | -76.62199 | 31069 ft | 494 kts | 217° |
| 2026-05-05 01:59 | 2.41227 | -76.64349 | 30406 ft | 490 kts | 218° |
| 2026-05-05 02:00 | 2.38600 | -76.66501 | 29728 ft | 485 kts | 218° |
| 2026-05-05 02:00 | 2.36882 | -76.67910 | 29304 ft | 481 kts | 218° |
| 2026-05-05 02:00 | 2.34309 | -76.70018 | 28654 ft | 475 kts | 218° |
| 2026-05-05 02:00 | 2.31764 | -76.72097 | 28024 ft | 470 kts | 218° |
| 2026-05-05 02:01 | 2.29245 | -76.74151 | 27398 ft | 465 kts | 218° |
| 2026-05-05 02:01 | 2.26751 | -76.76182 | 26764 ft | 460 kts | 218° |
| 2026-05-05 02:01 | 2.24277 | -76.78196 | 26146 ft | 456 kts | 218° |
| 2026-05-05 02:01 | 2.21826 | -76.80193 | 25503 ft | 453 kts | 218° |
| 2026-05-05 02:02 | 2.19391 | -76.82177 | 24872 ft | 450 kts | 218° |
| 2026-05-05 02:02 | 2.16968 | -76.84149 | 24245 ft | 448 kts | 218° |
| 2026-05-05 02:02 | 2.14556 | -76.86110 | 23606 ft | 446 kts | 218° |
| 2026-05-05 02:02 | 2.12161 | -76.88058 | 22961 ft | 441 kts | 218° |
| 2026-05-05 02:03 | 2.09795 | -76.89984 | 22355 ft | 436 kts | 218° |
| 2026-05-05 02:03 | 2.07453 | -76.91892 | 21761 ft | 432 kts | 218° |
| 2026-05-05 02:03 | 2.05137 | -76.93777 | 21148 ft | 427 kts | 218° |
| 2026-05-05 02:03 | 2.02842 | -76.95645 | 20465 ft | 424 kts | 218° |
| 2026-05-05 02:04 | 2.00568 | -76.97496 | 19876 ft | 420 kts | 218° |
| 2026-05-05 02:04 | 1.98324 | -76.99322 | 19303 ft | 410 kts | 218° |
| 2026-05-05 02:04 | 1.96141 | -77.01099 | 18713 ft | 398 kts | 218° |
| 2026-05-05 02:04 | 1.94013 | -77.02831 | 18103 ft | 388 kts | 218° |
| 2026-05-05 02:05 | 1.91979 | -77.04487 | 17584 ft | 377 kts | 218° |
| 2026-05-05 02:05 | 1.89975 | -77.06119 | 17040 ft | 367 kts | 218° |
| 2026-05-05 02:05 | 1.88017 | -77.07712 | 16515 ft | 360 kts | 218° |
| 2026-05-05 02:05 | 1.86001 | -77.09349 | 15994 ft | 386 kts | 218° |
| 2026-05-05 02:06 | 1.83904 | -77.11053 | 15648 ft | 389 kts | 218° |
| 2026-05-05 02:06 | 1.81803 | -77.12763 | 14963 ft | 391 kts | 218° |
| 2026-05-05 02:06 | 1.79675 | -77.14475 | 14124 ft | 391 kts | 215° |
| 2026-05-05 02:06 | 1.77442 | -77.15910 | 13793 ft | 371 kts | 206° |
| 2026-05-05 02:07 | 1.75231 | -77.17082 | 13568 ft | 349 kts | 206° |
| 2026-05-05 02:07 | 1.73156 | -77.18196 | 13376 ft | 329 kts | 206° |
| 2026-05-05 02:07 | 1.71202 | -77.19249 | 13206 ft | 310 kts | 206° |
| 2026-05-05 02:07 | 1.69360 | -77.20240 | 13026 ft | 293 kts | 206° |
| 2026-05-05 02:08 | 1.67589 | -77.21191 | 12580 ft | 287 kts | 206° |
| 2026-05-05 02:08 | 1.65836 | -77.22129 | 12074 ft | 284 kts | 206° |
| 2026-05-05 02:08 | 1.64095 | -77.23059 | 11562 ft | 281 kts | 205° |
| 2026-05-05 02:08 | 1.62384 | -77.23976 | 11146 ft | 278 kts | 205° |
| 2026-05-05 02:09 | 1.60692 | -77.24881 | 10705 ft | 274 kts | 205° |
| 2026-05-05 02:09 | 1.59021 | -77.25775 | 10248 ft | 271 kts | 205° |
| 2026-05-05 02:09 | 1.57374 | -77.26656 | 10009 ft | 270 kts | 205° |
| 2026-05-05 02:09 | 1.55737 | -77.27529 | 9928 ft | 262 kts | 205° |
| 2026-05-05 02:10 | 1.54173 | -77.28367 | 9912 ft | 246 kts | 205° |
| 2026-05-05 02:10 | 1.52705 | -77.29158 | 9926 ft | 236 kts | 205° |
| 2026-05-05 02:10 | 1.51239 | -77.29917 | 9832 ft | 235 kts | 204° |
| 2026-05-05 02:10 | 1.49808 | -77.30628 | 9772 ft | 225 kts | 203° |
| 2026-05-05 02:11 | 1.48439 | -77.31303 | 9701 ft | 213 kts | 204° |
| 2026-05-05 02:11 | 1.47128 | -77.31948 | 9439 ft | 210 kts | 204° |
| 2026-05-05 02:11 | 1.45816 | -77.32598 | 9123 ft | 211 kts | 204° |
| 2026-05-05 02:11 | 1.44549 | -77.33231 | 9087 ft | 195 kts | 204° |
| 2026-05-05 02:12 | 1.43369 | -77.33824 | 8972 ft | 183 kts | 204° |
| 2026-05-05 02:12 | 1.41290 | -77.34869 | 8723 ft | 154 kts | 204° |
| 2026-05-05 02:12 | 1.40312 | -77.35359 | 8802 ft | 161 kts | 204° |
| 2026-05-05 02:13 | 1.39320 | -77.35854 | 8799 ft | 159 kts | 204° |
| 2026-05-05 02:13 | 1.38339 | -77.36330 | 8823 ft | 154 kts | 198° |
| 2026-05-05 02:13 | 1.37350 | -77.36552 | 8728 ft | 141 kts | 181° |
| 2026-05-05 02:13 | 1.36381 | -77.36460 | 8427 ft | 140 kts | 165° |
| 2026-05-05 02:14 | 1.35477 | -77.36092 | 8102 ft | 141 kts | 149° |
| 2026-05-05 02:14 | 1.34744 | -77.35492 | 7938 ft | 139 kts | 133° |
| 2026-05-05 02:14 | 1.34174 | -77.34671 | 7716 ft | 148 kts | 116° |
| 2026-05-05 02:14 | 1.33877 | -77.33718 | 7489 ft | 140 kts | 99° |
| 2026-05-05 02:15 | 1.33867 | -77.32733 | 7310 ft | 146 kts | 82° |
| 2026-05-05 02:15 | 1.34159 | -77.31766 | 7135 ft | 145 kts | 64° |
| 2026-05-05 02:15 | 1.34728 | -77.30932 | 6896 ft | 147 kts | 47° |
| 2026-05-05 02:15 | 1.35514 | -77.30305 | 6695 ft | 144 kts | 30° |
| 2026-05-05 02:16 | 1.36461 | -77.29935 | 6470 ft | 145 kts | 13° |
| 2026-05-05 02:16 | 1.37426 | -77.29702 | 6283 ft | 144 kts | 15° |
| 2026-05-05 02:16 | 1.38449 | -77.29417 | 6870 ft | 155 kts | 16° |
| 2026-05-05 02:16 | 1.39503 | -77.29129 | 7681 ft | 159 kts | 14° |
| 2026-05-05 02:17 | 1.40600 | -77.28850 | 8401 ft | 168 kts | 15° |
| 2026-05-05 02:17 | 1.41783 | -77.28551 | 9060 ft | 184 kts | 16° |
| 2026-05-05 02:17 | 1.43085 | -77.28212 | 9670 ft | 203 kts | 16° |
| 2026-05-05 02:17 | 1.44509 | -77.27837 | 10232 ft | 218 kts | 17° |
| 2026-05-05 02:18 | 1.46026 | -77.27577 | 10889 ft | 226 kts | 2° |
| 2026-05-05 02:18 | 1.47623 | -77.27758 | 11479 ft | 241 kts | 347° |
| 2026-05-05 02:18 | 1.49313 | -77.28183 | 11794 ft | 257 kts | 348° |
| 2026-05-05 02:18 | 1.51046 | -77.28616 | 11895 ft | 257 kts | 348° |
| 2026-05-05 02:19 | 1.52772 | -77.29037 | 11910 ft | 256 kts | 348° |
| 2026-05-05 02:19 | 1.54509 | -77.29452 | 11906 ft | 256 kts | 348° |
| 2026-05-05 02:19 | 1.56252 | -77.29867 | 11903 ft | 256 kts | 349° |
| 2026-05-05 02:19 | 1.57981 | -77.30277 | 11904 ft | 256 kts | 349° |
| 2026-05-05 02:20 | 1.59713 | -77.30688 | 11904 ft | 256 kts | 349° |
| 2026-05-05 02:20 | 1.61439 | -77.31099 | 11904 ft | 255 kts | 349° |
| 2026-05-05 02:20 | 1.63169 | -77.31510 | 11904 ft | 256 kts | 349° |
| 2026-05-05 02:20 | 1.64905 | -77.31923 | 11863 ft | 257 kts | 349° |
| 2026-05-05 02:21 | 1.66641 | -77.32336 | 11862 ft | 256 kts | 349° |
| 2026-05-05 02:21 | 1.68368 | -77.32747 | 11863 ft | 256 kts | 349° |
| 2026-05-05 02:21 | 1.70102 | -77.33160 | 11862 ft | 256 kts | 349° |
| 2026-05-05 02:21 | 1.71836 | -77.33574 | 11861 ft | 257 kts | 349° |
| 2026-05-05 02:22 | 1.73571 | -77.33988 | 11860 ft | 256 kts | 349° |
| 2026-05-05 02:22 | 1.75305 | -77.34402 | 11866 ft | 255 kts | 349° |
| 2026-05-05 02:22 | 1.77033 | -77.34811 | 11869 ft | 256 kts | 349° |
| 2026-05-05 02:22 | 1.78749 | -77.35304 | 11862 ft | 257 kts | 339° |
| 2026-05-05 02:23 | 1.80327 | -77.36160 | 11836 ft | 260 kts | 326° |
| 2026-05-05 02:23 | 1.81688 | -77.37355 | 11842 ft | 262 kts | 312° |
| 2026-05-05 02:23 | 1.82749 | -77.38804 | 11834 ft | 263 kts | 299° |
| 2026-05-05 02:23 | 1.83489 | -77.40507 | 11920 ft | 266 kts | 285° |
| 2026-05-05 02:24 | 1.83856 | -77.42293 | 12096 ft | 264 kts | 278° |
| 2026-05-05 02:24 | 1.84171 | -77.44114 | 12322 ft | 268 kts | 279° |
| 2026-05-05 02:24 | 1.84508 | -77.45955 | 12691 ft | 268 kts | 279° |
| 2026-05-05 02:24 | 1.84839 | -77.47781 | 12812 ft | 267 kts | 279° |
| 2026-05-05 02:25 | 1.85164 | -77.49600 | 12819 ft | 266 kts | 279° |
| 2026-05-05 02:25 | 1.85493 | -77.51428 | 12820 ft | 266 kts | 279° |
| 2026-05-05 02:25 | 1.85824 | -77.53257 | 12811 ft | 268 kts | 280° |
| 2026-05-05 02:25 | 1.86154 | -77.55083 | 12809 ft | 265 kts | 280° |
| 2026-05-05 02:26 | 1.86539 | -77.56887 | 12798 ft | 266 kts | 292° |
| 2026-05-05 02:26 | 1.87546 | -77.58399 | 12806 ft | 263 kts | 321° |
| 2026-05-05 02:26 | 1.89126 | -77.59250 | 12799 ft | 258 kts | 351° |
| 2026-05-05 02:26 | 1.90891 | -77.59222 | 12916 ft | 255 kts | 21° |
| 2026-05-05 02:27 | 1.92364 | -77.58316 | 13444 ft | 250 kts | 50° |
| 2026-05-05 02:27 | 1.93210 | -77.56839 | 13712 ft | 245 kts | 78° |
| 2026-05-05 02:27 | 1.93210 | -77.55170 | 13799 ft | 243 kts | 107° |
| 2026-05-05 02:27 | 1.92560 | -77.53605 | 13799 ft | 244 kts | 111° |
| 2026-05-05 02:28 | 1.91975 | -77.52019 | 13803 ft | 243 kts | 109° |
| 2026-05-05 02:28 | 1.91436 | -77.50423 | 13814 ft | 241 kts | 108° |
| 2026-05-05 02:28 | 1.90900 | -77.48831 | 13820 ft | 243 kts | 108° |
| 2026-05-05 02:28 | 1.90349 | -77.47233 | 13817 ft | 243 kts | 109° |
| 2026-05-05 02:29 | 1.89788 | -77.45637 | 13819 ft | 243 kts | 109° |
| 2026-05-05 02:29 | 1.89224 | -77.44049 | 13820 ft | 242 kts | 109° |
| 2026-05-05 02:29 | 1.88657 | -77.42462 | 13817 ft | 243 kts | 109° |
| 2026-05-05 02:29 | 1.88089 | -77.40872 | 13818 ft | 243 kts | 109° |
| 2026-05-05 02:30 | 1.87519 | -77.39278 | 13800 ft | 242 kts | 109° |
| 2026-05-05 02:30 | 1.86957 | -77.37706 | 13605 ft | 239 kts | 109° |
| 2026-05-05 02:30 | 1.86398 | -77.36140 | 13242 ft | 240 kts | 109° |
| 2026-05-05 02:30 | 1.85840 | -77.34575 | 12923 ft | 237 kts | 109° |
| 2026-05-05 02:31 | 1.85284 | -77.33021 | 12610 ft | 236 kts | 109° |
| 2026-05-05 02:31 | 1.84733 | -77.31478 | 12308 ft | 235 kts | 109° |
| 2026-05-05 02:31 | 1.84185 | -77.29943 | 11997 ft | 234 kts | 110° |
| 2026-05-05 02:31 | 1.83642 | -77.28425 | 11855 ft | 232 kts | 110° |
| 2026-05-05 02:32 | 1.83095 | -77.26896 | 11825 ft | 234 kts | 110° |
| 2026-05-05 02:32 | 1.82546 | -77.25361 | 11824 ft | 235 kts | 110° |
| 2026-05-05 02:32 | 1.81997 | -77.23829 | 11825 ft | 234 kts | 110° |
| 2026-05-05 02:32 | 1.81449 | -77.22297 | 11842 ft | 235 kts | 109° |
| 2026-05-05 02:33 | 1.80893 | -77.20748 | 11842 ft | 237 kts | 109° |
| 2026-05-05 02:33 | 1.80341 | -77.19205 | 11841 ft | 235 kts | 109° |
| 2026-05-05 02:33 | 1.79657 | -77.17732 | 11829 ft | 235 kts | 127° |
| 2026-05-05 02:33 | 1.78405 | -77.16710 | 11635 ft | 237 kts | 155° |
| 2026-05-05 02:34 | 1.76781 | -77.16436 | 11306 ft | 241 kts | 184° |
| 2026-05-05 02:34 | 1.75196 | -77.16978 | 10988 ft | 245 kts | 205° |
| 2026-05-05 02:34 | 1.73687 | -77.17767 | 10704 ft | 243 kts | 205° |
| 2026-05-05 02:34 | 1.72189 | -77.18545 | 10432 ft | 242 kts | 205° |
| 2026-05-05 02:35 | 1.70715 | -77.19306 | 10132 ft | 241 kts | 205° |
| 2026-05-05 02:35 | 1.69231 | -77.20063 | 9874 ft | 239 kts | 204° |
| 2026-05-05 02:35 | 1.67743 | -77.20804 | 9567 ft | 239 kts | 204° |
| 2026-05-05 02:35 | 1.66266 | -77.21551 | 9281 ft | 238 kts | 204° |
| 2026-05-05 02:36 | 1.64796 | -77.22307 | 9010 ft | 236 kts | 202° |
| 2026-05-05 02:36 | 1.63293 | -77.22872 | 8916 ft | 227 kts | 193° |
| 2026-05-05 02:36 | 1.61732 | -77.23243 | 8885 ft | 232 kts | 192° |
| 2026-05-05 02:36 | 1.60174 | -77.23656 | 8886 ft | 231 kts | 192° |
| 2026-05-05 02:37 | 1.58640 | -77.24061 | 8886 ft | 222 kts | 192° |
| 2026-05-05 02:37 | 1.57197 | -77.24444 | 8885 ft | 207 kts | 192° |
| 2026-05-05 02:37 | 1.55798 | -77.24814 | 8755 ft | 212 kts | 192° |
| 2026-05-05 02:37 | 1.54352 | -77.25198 | 8476 ft | 215 kts | 193° |
| 2026-05-05 02:38 | 1.52963 | -77.25568 | 8223 ft | 199 kts | 192° |
| 2026-05-05 02:38 | 1.51671 | -77.25909 | 7956 ft | 186 kts | 192° |
| 2026-05-05 02:38 | 1.50459 | -77.26231 | 7721 ft | 174 kts | 192° |
| 2026-05-05 02:38 | 1.49329 | -77.26531 | 7499 ft | 162 kts | 192° |
| 2026-05-05 02:39 | 1.48296 | -77.26804 | 7402 ft | 147 kts | 194° |
| 2026-05-05 02:39 | 1.47300 | -77.27067 | 7212 ft | 148 kts | 194° |
| 2026-05-05 02:39 | 1.46312 | -77.27330 | 7015 ft | 146 kts | 194° |
| 2026-05-05 02:39 | 1.45334 | -77.27589 | 6822 ft | 145 kts | 194° |
| 2026-05-05 02:40 | 1.44367 | -77.27845 | 6636 ft | 144 kts | 193° |
| 2026-05-05 02:40 | 1.43407 | -77.28100 | 6453 ft | 140 kts | 194° |
| 2026-05-05 02:40 | 1.42457 | -77.28351 | 6258 ft | 140 kts | 194° |
| 2026-05-05 02:40 | 1.41543 | -77.28596 | 6105 ft | 128 kts | 193° |
| 2026-05-05 02:41 | 1.40694 | -77.28825 | 5919 ft | 128 kts | 192° |
| 2026-05-05 02:41 | 1.39865 | -77.29040 | 5892 ft | 109 kts | 196° |
| 2026-05-05 02:41 | 1.39288 | -77.29191 | 5926 ft | 64 kts | 195° |
| 2026-05-05 02:41 | 1.38989 | -77.29269 | 5938 ft | 23 kts | 189° |
| 2026-05-05 02:42 | 1.38949 | -77.29284 | 5938 ft | 1 kts | 280° |
| 2026-05-05 02:42 | 1.38969 | -77.29284 | 5938 ft | 9 kts | 6° |
| 2026-05-05 02:42 | 1.39111 | -77.29241 | 5933 ft | 37 kts | 11° |
| 2026-05-05 02:42 | 1.39440 | -77.29156 | 5916 ft | 56 kts | 17° |
| 2026-05-05 02:43 | 1.39517 | -77.29079 | 5911 ft | 10 kts | 104° |
| 2026-05-05 02:43 | 1.39514 | -77.29017 | 5908 ft | 3 kts | 101° |
| 2026-05-05 02:43 | 1.39513 | -77.29009 | 5908 ft | 0 kts | 101° |